Time;durP1;ratioP1;P1;durP2;ratioP2;P2;SDS_P1;SDS_P2;PMS_P1;PMS_P2;Temp;Humidity;BMP_temperature;BMP_pressure;BME280_temperature;BME280_humidity;BME280_pressure;Samples;Min_cycle;Max_cycle;Signal;HPM_P1;HPM_P2
2021/12/29 00:01:19;;;;;;;1.75;0.22;;;8.30;94.20;;;;;;5003852;28;20092;-79
2021/12/29 00:03:45;;;;;;;0.98;0.17;;;8.30;94.20;;;;;;5006981;28;20050;-79
2021/12/29 00:06:10;;;;;;;0.30;0.22;;;8.30;94.20;;;;;;5025346;28;20632;-79
2021/12/29 00:08:36;;;;;;;2.67;0.10;;;8.30;94.20;;;;;;4998047;28;20111;-79
2021/12/29 00:11:01;;;;;;;1.63;0.30;;;8.30;94.30;;;;;;5045598;28;20030;-78
2021/12/29 00:13:27;;;;;;;0.60;0.20;;;8.30;94.20;;;;;;5027073;28;20104;-80
2021/12/29 00:15:57;;;;;;;1.60;0.20;;;8.30;94.30;;;;;;5020401;28;20728;-78
2021/12/29 00:18:26;;;;;;;0.73;0.10;;;8.30;94.30;;;;;;5034290;28;20029;-79
2021/12/29 00:20:51;;;;;;;1.20;0.10;;;8.30;94.30;;;;;;5034136;28;20033;-79
2021/12/29 00:23:17;;;;;;;2.30;0.32;;;8.40;94.30;;;;;;5023101;28;20037;-79
2021/12/29 00:25:42;;;;;;;2.40;0.20;;;8.40;94.30;;;;;;5017655;28;20034;-78
2021/12/29 00:28:08;;;;;;;0.28;0.17;;;8.40;94.30;;;;;;5021650;28;20037;-78
2021/12/29 00:30:33;;;;;;;1.30;0.20;;;8.40;94.30;;;;;;5005043;28;20037;-78
2021/12/29 00:32:59;;;;;;;1.85;0.30;;;8.40;94.30;;;;;;5021492;28;20033;-79
2021/12/29 00:35:24;;;;;;;1.73;0.22;;;8.40;94.30;;;;;;5013345;28;20055;-78
2021/12/29 00:37:50;;;;;;;0.10;0.10;;;8.40;94.30;;;;;;5042415;28;20045;-78
2021/12/29 00:40:15;;;;;;;2.47;0.10;;;8.40;94.30;;;;;;4998050;28;20072;-78
2021/12/29 00:42:41;;;;;;;0.05;0.05;;;8.40;94.30;;;;;;5031728;28;20504;-79
2021/12/29 00:45:07;;;;;;;0.30;0.10;;;8.40;94.30;;;;;;5017651;28;20052;-78
2021/12/29 00:47:35;;;;;;;0.93;0.20;;;8.50;94.30;;;;;;5023793;28;20047;-78
2021/12/29 00:50:02;;;;;;;0.10;0.10;;;8.50;94.40;;;;;;4988824;28;20087;-79
2021/12/29 00:52:28;;;;;;;0.22;0.10;;;8.50;94.40;;;;;;4995695;28;20072;-79
2021/12/29 00:54:53;;;;;;;0.70;0.20;;;8.50;94.40;;;;;;5014392;28;20068;-79
2021/12/29 00:57:19;;;;;;;0.20;0.20;;;8.50;94.40;;;;;;5017009;28;20403;-78
2021/12/29 00:59:45;;;;;;;0.20;0.10;;;8.50;94.40;;;;;;5001550;28;20531;-79
2021/12/29 01:02:11;;;;;;;0.55;0.25;;;8.50;94.40;;;;;;5009470;28;20088;-78
2021/12/29 01:04:37;;;;;;;0.20;0.10;;;8.50;94.40;;;;;;5017924;28;20706;-79
2021/12/29 01:07:03;;;;;;;1.13;0.45;;;8.50;94.40;;;;;;5017374;28;20042;-78
2021/12/29 01:09:28;;;;;;;0.10;0.10;;;8.50;94.40;;;;;;5004113;28;20041;-78
2021/12/29 01:11:56;;;;;;;0.15;0.15;;;8.50;94.40;;;;;;5019734;28;20120;-78
2021/12/29 01:14:22;;;;;;;0.80;0.28;;;8.50;94.70;;;;;;5023112;28;20033;-79
2021/12/29 01:16:49;;;;;;;0.85;0.17;;;8.50;94.40;;;;;;5022128;28;20068;-78
2021/12/29 01:19:18;;;;;;;0.20;0.20;;;8.60;94.40;;;;;;5028366;28;20043;-78
2021/12/29 01:21:45;;;;;;;0.40;0.10;;;8.60;94.40;;;;;;5018931;28;20034;-78
2021/12/29 01:24:10;;;;;;;1.15;0.20;;;8.60;94.40;;;;;;5015393;28;20120;-78
2021/12/29 01:26:36;;;;;;;1.00;0.15;;;8.60;94.40;;;;;;5020334;28;20135;-78
2021/12/29 01:29:02;;;;;;;0.47;0.10;;;8.60;94.80;;;;;;5010543;28;20585;-78
2021/12/29 01:31:28;;;;;;;0.28;0.10;;;8.60;94.40;;;;;;5004949;28;20036;-78
2021/12/29 01:33:53;;;;;;;0.10;0.10;;;8.60;94.40;;;;;;5017561;28;20033;-79
2021/12/29 01:36:19;;;;;;;0.30;0.20;;;8.60;94.40;;;;;;4998659;28;20068;-78
2021/12/29 01:38:44;;;;;;;0.30;0.10;;;8.60;94.40;;;;;;5016744;28;20033;-78
2021/12/29 01:41:10;;;;;;;0.40;0.10;;;8.60;94.40;;;;;;5004956;28;20032;-79
2021/12/29 01:43:35;;;;;;;0.20;0.00;;;8.60;94.40;;;;;;5023400;28;20041;-78
2021/12/29 01:46:01;;;;;;;0.20;0.10;;;8.70;94.40;;;;;;5018211;28;20037;-78
2021/12/29 01:48:26;;;;;;;0.10;0.10;;;8.70;94.40;;;;;;5020134;28;20048;-78
2021/12/29 01:50:52;;;;;;;0.55;0.10;;;8.70;94.40;;;;;;5012321;28;20507;-78
2021/12/29 01:53:24;;;;;;;0.17;0.10;;;8.70;94.40;;;;;;5047431;28;20106;-78
2021/12/29 01:55:50;;;;;;;0.20;0.20;;;8.70;94.40;;;;;;5002196;28;20507;-79
2021/12/29 01:58:15;;;;;;;1.75;0.10;;;8.70;94.40;;;;;;4994444;28;20072;-79
2021/12/29 02:00:41;;;;;;;0.20;0.20;;;8.70;94.40;;;;;;5014206;28;20435;-78
2021/12/29 02:03:08;;;;;;;0.38;0.17;;;8.70;94.40;;;;;;5026310;28;20654;-79
2021/12/29 02:05:34;;;;;;;0.10;0.10;;;8.70;94.40;;;;;;5024911;28;20782;-79
2021/12/29 02:08:00;;;;;;;1.27;0.20;;;8.70;94.40;;;;;;5018761;28;20420;-78
2021/12/29 02:10:30;;;;;;;1.35;0.30;;;8.70;94.70;;;;;;5017633;28;20037;-79
2021/12/29 02:12:56;;;;;;;0.93;0.25;;;8.70;94.40;;;;;;5008587;28;20133;-78
2021/12/29 02:15:22;;;;;;;1.08;0.25;;;8.70;94.40;;;;;;5002799;28;20188;-78
2021/12/29 02:17:49;;;;;;;0.63;0.10;;;8.70;94.40;;;;;;5004918;28;20038;-78
2021/12/29 02:20:18;;;;;;;0.47;0.10;;;8.70;94.40;;;;;;4988775;28;20034;-78
2021/12/29 02:22:50;;;;;;;0.40;0.35;;;8.70;94.40;;;;;;4993322;28;20037;-78
2021/12/29 02:27:46;;;;;;;1.20;0.20;;;8.70;94.40;;;;;;5019828;28;20088;-78
2021/12/29 02:30:12;;;;;;;0.73;0.20;;;8.70;94.40;;;;;;5021236;28;20064;-79
2021/12/29 02:32:38;;;;;;;0.13;0.00;;;8.70;94.40;;;;;;5007950;28;20076;-78
2021/12/29 02:35:04;;;;;;;0.20;0.20;;;8.70;94.40;;;;;;4990678;28;20044;-78
2021/12/29 02:37:30;;;;;;;1.55;0.20;;;8.70;94.40;;;;;;5012067;28;20034;-78
2021/12/29 02:39:55;;;;;;;0.10;0.05;;;8.70;94.50;;;;;;5004051;28;20042;-78
2021/12/29 02:42:24;;;;;;;0.57;0.17;;;8.70;94.40;;;;;;5022143;28;20033;-78
2021/12/29 02:44:51;;;;;;;0.25;0.20;;;8.80;94.40;;;;;;5018345;28;20120;-79
2021/12/29 02:47:17;;;;;;;0.40;0.10;;;8.80;94.40;;;;;;5018612;28;20043;-79
2021/12/29 02:49:42;;;;;;;0.70;0.10;;;8.80;94.40;;;;;;5013384;28;20052;-78
2021/12/29 02:52:09;;;;;;;0.32;0.20;;;8.80;94.50;;;;;;5016452;28;20041;-79
2021/12/29 02:54:35;;;;;;;0.30;0.20;;;8.80;94.80;;;;;;5002958;28;20708;-78
2021/12/29 02:57:00;;;;;;;0.40;0.20;;;8.80;94.40;;;;;;5015490;28;20042;-79
2021/12/29 02:59:26;;;;;;;0.52;0.15;;;8.80;94.40;;;;;;5045949;28;20046;-78
2021/12/29 03:01:51;;;;;;;0.95;0.13;;;8.80;94.40;;;;;;5015316;28;20488;-78
2021/12/29 03:04:17;;;;;;;1.98;0.22;;;8.80;94.70;;;;;;5004735;28;20071;-79
2021/12/29 03:06:42;;;;;;;0.20;0.15;;;8.80;94.40;;;;;;5004655;28;20045;-78
2021/12/29 03:09:09;;;;;;;0.10;0.10;;;8.80;94.40;;;;;;5018825;28;20061;-78
2021/12/29 03:11:35;;;;;;;0.20;0.20;;;8.80;94.40;;;;;;5028346;28;20037;-78
2021/12/29 03:14:00;;;;;;;0.70;0.30;;;8.80;94.40;;;;;;5009504;28;20529;-79
2021/12/29 03:16:27;;;;;;;1.95;0.30;;;8.80;94.40;;;;;;5022577;28;20486;-78
2021/12/29 03:18:52;;;;;;;1.30;0.30;;;8.80;94.40;;;;;;5026826;28;20025;-79
2021/12/29 03:21:18;;;;;;;1.08;0.25;;;8.80;94.40;;;;;;5016384;28;20130;-78
2021/12/29 03:23:43;;;;;;;1.60;0.20;;;8.90;94.40;;;;;;5019538;28;20610;-78
2021/12/29 03:26:09;;;;;;;0.90;0.30;;;8.90;94.40;;;;;;5021612;28;20033;-78
2021/12/29 03:28:35;;;;;;;0.10;0.10;;;8.90;94.40;;;;;;5023180;28;20755;-78
2021/12/29 03:31:00;;;;;;;0.38;0.20;;;8.90;94.30;;;;;;5011941;28;20064;-78
2021/12/29 03:33:30;;;;;;;0.45;0.20;;;8.90;94.40;;;;;;5018479;28;20049;-78
2021/12/29 03:36:00;;;;;;;0.50;0.20;;;8.90;94.30;;;;;;5025925;28;20044;-78
2021/12/29 03:38:26;;;;;;;0.15;0.15;;;8.90;94.40;;;;;;5026440;28;20095;-78
2021/12/29 03:40:51;;;;;;;1.77;0.32;;;8.90;94.30;;;;;;5016453;28;20049;-78
2021/12/29 03:43:17;;;;;;;0.20;0.13;;;8.90;94.30;;;;;;5017657;28;20107;-78
2021/12/29 03:45:47;;;;;;;0.52;0.20;;;8.90;94.30;;;;;;5011576;28;20046;-78
2021/12/29 03:48:13;;;;;;;0.40;0.20;;;8.80;94.30;;;;;;5017534;28;20080;-78
2021/12/29 03:50:38;;;;;;;0.22;0.20;;;8.80;94.30;;;;;;5016426;28;20484;-79
2021/12/29 03:53:04;;;;;;;0.47;0.10;;;8.80;94.30;;;;;;5020695;28;20041;-78
2021/12/29 03:55:30;;;;;;;0.75;0.20;;;8.80;94.30;;;;;;4994572;28;20037;-78
2021/12/29 03:58:01;;;;;;;0.10;0.10;;;8.80;94.30;;;;;;5038974;28;20532;-80
2021/12/29 04:00:26;;;;;;;0.10;0.10;;;8.80;94.30;;;;;;5029098;28;20504;-81
2021/12/29 04:02:52;;;;;;;0.82;0.10;;;8.80;94.30;;;;;;5017076;28;20069;-78
2021/12/29 04:05:19;;;;;;;0.15;0.13;;;8.80;94.30;;;;;;5030352;28;20041;-79
2021/12/29 04:07:45;;;;;;;0.10;0.10;;;8.80;94.70;;;;;;5008790;28;20044;-78
2021/12/29 04:10:10;;;;;;;0.50;0.00;;;8.80;94.30;;;;;;5004107;28;20037;-78
2021/12/29 04:12:39;;;;;;;0.38;0.10;;;8.80;94.30;;;;;;4996678;28;20032;-78
2021/12/29 04:15:05;;;;;;;0.10;0.10;;;8.80;94.30;;;;;;5015990;28;20103;-81
2021/12/29 04:17:36;;;;;;;0.20;0.20;;;8.80;94.30;;;;;;5026040;28;20040;-78
2021/12/29 04:22:50;;;;;;;0.10;0.10;;;8.80;94.30;;;;;;5019513;28;20217;-78
2021/12/29 04:25:15;;;;;;;0.20;0.08;;;8.80;94.30;;;;;;5005006;28;20104;-78
2021/12/29 04:27:41;;;;;;;0.20;0.20;;;8.80;94.30;;;;;;5003900;28;20033;-80
2021/12/29 04:30:07;;;;;;;0.55;0.10;;;8.80;94.30;;;;;;5019948;28;20068;-78
2021/12/29 04:32:32;;;;;;;0.30;0.20;;;8.80;94.30;;;;;;5023012;28;20092;-78
2021/12/29 04:34:58;;;;;;;0.10;0.10;;;8.80;94.30;;;;;;5016031;28;20061;-78
2021/12/29 04:37:23;;;;;;;0.10;0.10;;;8.80;94.30;;;;;;4993075;28;20033;-78
2021/12/29 04:39:49;;;;;;;0.30;0.30;;;8.80;94.30;;;;;;5017752;28;20030;-78
2021/12/29 04:42:14;;;;;;;0.17;0.10;;;8.80;94.30;;;;;;5011688;28;20527;-78
2021/12/29 04:44:40;;;;;;;1.38;0.10;;;8.80;94.30;;;;;;4989452;28;20041;-78
2021/12/29 04:47:07;;;;;;;0.20;0.20;;;8.80;94.30;;;;;;5018787;28;20516;-78
2021/12/29 04:49:40;;;;;;;2.90;0.20;;;8.80;94.30;;;;;;5015629;28;20040;-79
2021/12/29 04:52:06;;;;;;;0.10;0.10;;;8.80;94.30;;;;;;5026422;28;20033;-78
2021/12/29 04:54:32;;;;;;;1.00;0.20;;;8.80;94.30;;;;;;5022000;28;21785;-78
2021/12/29 04:56:58;;;;;;;0.10;0.10;;;8.80;94.30;;;;;;5012657;28;20038;-78
2021/12/29 04:59:24;;;;;;;0.10;0.10;;;8.80;94.30;;;;;;5016432;28;20064;-78
2021/12/29 05:01:49;;;;;;;0.10;0.10;;;8.80;94.30;;;;;;5018607;28;20057;-78
2021/12/29 05:04:29;;;;;;;0.50;0.20;;;8.80;94.30;;;;;;5001718;28;20132;-77
2021/12/29 05:09:38;;;;;;;0.10;0.10;;;8.80;94.30;;;;;;5015597;28;20068;-78
2021/12/29 05:12:04;;;;;;;3.38;1.00;;;8.80;94.30;;;;;;5015184;28;20504;-78
2021/12/29 05:14:30;;;;;;;1.75;1.48;;;8.80;94.20;;;;;;5016808;28;20037;-79
2021/12/29 05:16:55;;;;;;;47.83;32.38;;;8.80;94.20;;;;;;5015553;28;20038;-78
2021/12/29 05:19:21;;;;;;;2.60;2.35;;;8.80;94.20;;;;;;4978761;28;20102;-77
2021/12/29 05:21:46;;;;;;;3.50;0.50;;;8.80;94.20;;;;;;5010103;28;20659;-78
2021/12/29 05:24:12;;;;;;;4.57;3.13;;;8.80;94.20;;;;;;5049328;28;20042;-77
2021/12/29 05:26:38;;;;;;;5.72;3.15;;;8.80;94.20;;;;;;5024840;28;20040;-78
2021/12/29 05:29:04;;;;;;;3.97;1.77;;;8.80;94.20;;;;;;5020301;28;20040;-78
2021/12/29 05:31:30;;;;;;;1.45;0.98;;;8.80;94.20;;;;;;5019315;28;20124;-78
2021/12/29 05:33:55;;;;;;;1.90;0.88;;;8.80;94.20;;;;;;4985643;28;20057;-78
2021/12/29 05:36:21;;;;;;;12.63;3.45;;;8.80;94.20;;;;;;5017444;28;20488;-77
2021/12/29 05:38:46;;;;;;;1.50;0.75;;;8.80;94.20;;;;;;4997995;28;20103;-78
2021/12/29 05:41:12;;;;;;;0.60;0.30;;;8.80;94.20;;;;;;5001489;28;20061;-78
2021/12/29 05:43:37;;;;;;;11.27;4.75;;;8.80;94.20;;;;;;4999231;28;20473;-78
2021/12/29 05:46:03;;;;;;;2.10;1.23;;;8.70;94.10;;;;;;5016752;28;20388;-79
2021/12/29 05:48:28;;;;;;;1.20;0.85;;;8.80;94.10;;;;;;5014341;28;20033;-79
2021/12/29 05:50:54;;;;;;;0.45;0.30;;;8.80;94.10;;;;;;5012317;28;20052;-77
2021/12/29 05:53:19;;;;;;;0.35;0.35;;;8.80;94.10;;;;;;5015232;28;20496;-78
2021/12/29 05:55:45;;;;;;;1.42;0.73;;;8.80;94.10;;;;;;5008151;28;20030;-78
2021/12/29 05:58:10;;;;;;;1.02;0.73;;;8.80;94.10;;;;;;5006735;28;20037;-78
2021/12/29 06:00:37;;;;;;;0.63;0.22;;;8.80;94.10;;;;;;5007943;28;20037;-78
2021/12/29 06:03:02;;;;;;;2.42;0.90;;;8.80;94.10;;;;;;5007495;28;20145;-78
2021/12/29 06:05:28;;;;;;;0.30;0.30;;;8.80;94.10;;;;;;5007510;28;20524;-78
2021/12/29 06:07:54;;;;;;;1.30;0.50;;;8.70;94.00;;;;;;4997170;28;20086;-79
2021/12/29 06:10:19;;;;;;;2.83;1.80;;;8.80;94.10;;;;;;5027431;28;20041;-78
2021/12/29 06:12:46;;;;;;;2.85;2.00;;;8.70;94.00;;;;;;5012912;28;20053;-78
2021/12/29 06:15:11;;;;;;;0.52;0.30;;;8.80;94.00;;;;;;5019571;28;20532;-78
2021/12/29 06:17:37;;;;;;;1.38;0.30;;;8.80;94.00;;;;;;5010018;28;20069;-78
2021/12/29 06:20:04;;;;;;;0.68;0.57;;;8.70;94.00;;;;;;5041631;28;20053;-79
2021/12/29 06:22:29;;;;;;;0.35;0.30;;;8.80;94.00;;;;;;5013447;28;20049;-79
2021/12/29 06:24:55;;;;;;;0.63;0.45;;;8.70;94.00;;;;;;5018947;28;20117;-78
2021/12/29 06:27:21;;;;;;;0.47;0.43;;;8.70;93.90;;;;;;5016043;28;20041;-78
2021/12/29 06:29:46;;;;;;;0.30;0.22;;;8.70;93.90;;;;;;5020617;28;20033;-78
2021/12/29 06:32:12;;;;;;;0.28;0.28;;;8.70;93.90;;;;;;5014139;28;20530;-78
2021/12/29 06:34:37;;;;;;;1.00;0.30;;;8.70;93.90;;;;;;4999131;28;20567;-78
2021/12/29 06:37:08;;;;;;;0.30;0.30;;;8.70;93.90;;;;;;5002760;28;20026;-78
2021/12/29 06:39:35;;;;;;;0.98;0.38;;;8.70;93.90;;;;;;5020783;28;20040;-79
2021/12/29 06:42:00;;;;;;;0.90;0.40;;;8.70;93.90;;;;;;5026448;28;20116;-79
2021/12/29 06:44:26;;;;;;;0.63;0.60;;;8.70;93.90;;;;;;5017626;28;20515;-80
2021/12/29 06:46:51;;;;;;;0.47;0.45;;;8.70;93.90;;;;;;5015793;28;20044;-78
2021/12/29 06:49:17;;;;;;;1.38;0.30;;;8.70;93.90;;;;;;5027992;28;20037;-78
2021/12/29 06:51:42;;;;;;;1.60;0.40;;;8.70;93.90;;;;;;5020125;28;20034;-79
2021/12/29 06:54:08;;;;;;;0.30;0.30;;;8.70;93.80;;;;;;5014088;28;20025;-79
2021/12/29 06:56:34;;;;;;;0.93;0.30;;;8.70;93.80;;;;;;5035443;28;20032;-78
2021/12/29 06:58:59;;;;;;;0.40;0.40;;;8.70;93.80;;;;;;5018289;28;20080;-78
2021/12/29 07:01:25;;;;;;;0.60;0.38;;;8.70;93.80;;;;;;5003057;28;20411;-79
2021/12/29 07:03:50;;;;;;;1.23;0.40;;;8.70;93.80;;;;;;5005942;28;20542;-78
2021/12/29 07:06:16;;;;;;;1.15;0.35;;;8.70;93.80;;;;;;5019006;28;20080;-78
2021/12/29 07:08:41;;;;;;;0.40;0.40;;;8.70;93.80;;;;;;5000275;28;20120;-78
2021/12/29 07:11:07;;;;;;;1.65;0.40;;;8.70;93.80;;;;;;5009438;28;20041;-79
2021/12/29 07:13:33;;;;;;;1.80;0.50;;;8.60;93.80;;;;;;5042726;28;20064;-78
2021/12/29 07:15:58;;;;;;;0.40;0.30;;;8.60;93.80;;;;;;5006956;28;20021;-79
2021/12/29 07:18:24;;;;;;;0.50;0.50;;;8.60;93.80;;;;;;5020752;28;20518;-79
2021/12/29 07:20:49;;;;;;;0.85;0.45;;;8.60;93.80;;;;;;5027349;28;20043;-80
2021/12/29 07:23:15;;;;;;;1.27;0.82;;;8.60;93.80;;;;;;5016188;28;20569;-79
2021/12/29 07:25:40;;;;;;;0.68;0.40;;;8.60;93.80;;;;;;5027626;28;20079;-80
2021/12/29 07:28:06;;;;;;;0.75;0.40;;;8.60;93.80;;;;;;5019272;28;20531;-79
2021/12/29 07:30:31;;;;;;;2.28;0.35;;;8.60;93.80;;;;;;5015921;28;22564;-79
2021/12/29 07:32:57;;;;;;;0.93;0.40;;;8.70;93.80;;;;;;5014463;28;20034;-80
2021/12/29 07:35:22;;;;;;;0.30;0.30;;;8.60;93.70;;;;;;5028837;28;20030;-80
2021/12/29 07:37:48;;;;;;;1.42;0.38;;;8.60;93.70;;;;;;5016571;28;20053;-79
2021/12/29 07:40:14;;;;;;;0.30;0.30;;;8.60;93.70;;;;;;5016545;28;20591;-79
2021/12/29 07:42:41;;;;;;;0.65;0.35;;;8.60;93.70;;;;;;5033032;28;20095;-80
2021/12/29 07:45:08;;;;;;;0.40;0.40;;;8.60;93.70;;;;;;4992729;28;20642;-80
2021/12/29 07:47:39;;;;;;;0.40;0.40;;;8.60;93.70;;;;;;5006049;28;20048;-79
2021/12/29 07:50:06;;;;;;;2.58;0.50;;;8.60;93.80;;;;;;5020074;28;20098;-79
2021/12/29 07:52:31;;;;;;;0.85;0.43;;;8.60;93.80;;;;;;5025546;28;20037;-79
2021/12/29 07:54:57;;;;;;;0.85;0.40;;;8.60;93.80;;;;;;5018752;28;20770;-80
2021/12/29 07:57:22;;;;;;;0.30;0.30;;;8.60;93.80;;;;;;5016129;28;20036;-79
2021/12/29 07:59:48;;;;;;;1.75;0.40;;;8.70;93.80;;;;;;5018739;28;20056;-79
2021/12/29 08:02:16;;;;;;;1.13;0.40;;;8.60;93.80;;;;;;5020277;28;21455;-79
2021/12/29 08:04:41;;;;;;;0.47;0.40;;;8.60;93.80;;;;;;4993044;28;20559;-80
2021/12/29 08:07:07;;;;;;;1.10;0.52;;;8.60;93.70;;;;;;5011706;28;20041;-79
2021/12/29 08:09:33;;;;;;;0.50;0.35;;;8.60;93.80;;;;;;5000016;28;20047;-79
2021/12/29 08:11:58;;;;;;;0.70;0.43;;;8.70;93.80;;;;;;5013642;28;20034;-79
2021/12/29 08:14:24;;;;;;;0.40;0.40;;;8.70;93.80;;;;;;5003913;28;20025;-80
2021/12/29 08:16:49;;;;;;;1.15;0.43;;;8.70;93.80;;;;;;5024687;28;20038;-79
2021/12/29 08:19:16;;;;;;;0.75;0.50;;;8.70;93.70;;;;;;4990553;28;20033;-79
2021/12/29 08:21:42;;;;;;;3.85;0.40;;;8.70;93.70;;;;;;5027885;28;20033;-79
2021/12/29 08:24:07;;;;;;;1.00;0.40;;;8.70;93.70;;;;;;5015421;28;20029;-80
2021/12/29 08:26:33;;;;;;;0.65;0.32;;;8.70;93.70;;;;;;5002056;28;20022;-79
2021/12/29 08:28:59;;;;;;;0.65;0.50;;;8.70;93.70;;;;;;5018063;28;20038;-80
2021/12/29 08:31:25;;;;;;;0.75;0.50;;;8.70;93.70;;;;;;4998706;28;20060;-79
2021/12/29 08:33:51;;;;;;;1.15;0.70;;;8.70;93.70;;;;;;5017661;28;20045;-79
2021/12/29 08:36:16;;;;;;;2.05;0.52;;;8.80;93.70;;;;;;5022479;28;20032;-79
2021/12/29 08:38:42;;;;;;;0.40;0.30;;;8.80;93.70;;;;;;5027749;28;20020;-80
2021/12/29 08:41:10;;;;;;;0.85;0.55;;;8.80;93.70;;;;;;5003897;28;20025;-80
2021/12/29 08:43:36;;;;;;;0.93;0.70;;;8.80;93.70;;;;;;5010806;28;20031;-80
2021/12/29 08:46:01;;;;;;;0.88;0.70;;;8.80;93.70;;;;;;5014627;28;20388;-80
2021/12/29 08:48:27;;;;;;;1.08;0.70;;;8.80;93.70;;;;;;5018010;28;20109;-80
2021/12/29 08:50:52;;;;;;;7.13;2.92;;;8.90;93.80;;;;;;5019611;28;20041;-80
2021/12/29 08:53:18;;;;;;;1.08;0.90;;;8.90;93.70;;;;;;5018310;28;20033;-80
2021/12/29 08:55:47;;;;;;;3.60;1.52;;;8.90;93.70;;;;;;5019005;28;20036;-79
2021/12/29 08:58:14;;;;;;;1.95;1.15;;;8.90;93.70;;;;;;5007991;28;20042;-80
2021/12/29 09:00:39;;;;;;;2.60;0.90;;;8.90;93.60;;;;;;5002036;28;20574;-81
2021/12/29 09:03:06;;;;;;;1.70;0.70;;;9.00;93.70;;;;;;4999549;28;20508;-80
2021/12/29 09:05:32;;;;;;;3.13;1.17;;;9.00;93.70;;;;;;5014110;28;20044;-80
2021/12/29 09:07:57;;;;;;;0.57;0.52;;;9.00;93.70;;;;;;5016265;28;20049;-79
2021/12/29 09:10:23;;;;;;;0.52;0.52;;;9.00;93.60;;;;;;5007521;28;20044;-80
2021/12/29 09:12:51;;;;;;;0.47;0.40;;;9.00;93.60;;;;;;5028211;28;20052;-80
2021/12/29 09:15:17;;;;;;;0.68;0.68;;;9.10;93.70;;;;;;4999324;28;20180;-79
2021/12/29 09:17:43;;;;;;;1.55;0.70;;;9.10;93.60;;;;;;5013549;28;20128;-80
2021/12/29 09:20:15;;;;;;;1.38;0.82;;;9.10;93.60;;;;;;5003605;28;20464;-79
2021/12/29 09:22:40;;;;;;;3.83;1.10;;;9.10;93.60;;;;;;4983835;28;20132;-80
2021/12/29 09:25:07;;;;;;;1.30;0.80;;;9.20;93.60;;;;;;5018678;28;20132;-79
2021/12/29 09:27:32;;;;;;;3.45;1.55;;;9.20;93.50;;;;;;5015849;28;20451;-79
2021/12/29 09:29:58;;;;;;;6.88;3.63;;;9.20;93.50;;;;;;5016269;28;20064;-80
2021/12/29 09:32:24;;;;;;;7.40;3.63;;;9.20;93.50;;;;;;5016076;28;20038;-80
2021/12/29 09:34:50;;;;;;;0.73;0.70;;;9.20;93.50;;;;;;4980266;28;20047;-79
2021/12/29 09:37:16;;;;;;;2.20;1.00;;;9.20;93.40;;;;;;4995088;28;20043;-79
2021/12/29 09:39:41;;;;;;;2.25;1.00;;;9.20;93.40;;;;;;4999695;28;20038;-79
2021/12/29 09:42:07;;;;;;;6.50;3.25;;;9.30;93.40;;;;;;5015164;28;20515;-79
2021/12/29 09:44:33;;;;;;;4.32;2.33;;;9.30;93.40;;;;;;5028146;28;20041;-78
2021/12/29 09:46:58;;;;;;;1.85;1.20;;;9.30;93.40;;;;;;4999856;28;20026;-78
2021/12/29 09:49:24;;;;;;;1.80;1.00;;;9.30;93.30;;;;;;4985989;28;20403;-78
2021/12/29 09:51:50;;;;;;;0.55;0.55;;;9.30;93.30;;;;;;5025512;28;20546;-78
2021/12/29 09:54:16;;;;;;;2.03;1.23;;;9.30;93.30;;;;;;5015881;28;20029;-78
2021/12/29 09:56:41;;;;;;;1.70;0.95;;;9.30;93.30;;;;;;4976686;28;20730;-78
2021/12/29 09:59:07;;;;;;;1.38;0.60;;;9.40;93.30;;;;;;5041438;28;20033;-78
2021/12/29 10:01:32;;;;;;;1.00;0.60;;;9.40;93.30;;;;;;5013753;28;20105;-78
2021/12/29 10:03:58;;;;;;;1.50;0.88;;;9.40;93.30;;;;;;5013568;28;20148;-78
2021/12/29 10:06:24;;;;;;;1.88;0.73;;;9.40;93.30;;;;;;5009432;28;20433;-78
2021/12/29 10:08:49;;;;;;;2.90;0.73;;;9.40;93.20;;;;;;5001199;28;20391;-80
2021/12/29 10:11:17;;;;;;;1.13;0.55;;;9.40;93.20;;;;;;5015397;28;20044;-78
2021/12/29 10:13:45;;;;;;;1.45;0.80;;;9.40;93.20;;;;;;5000415;28;20042;-78
2021/12/29 10:16:15;;;;;;;2.78;0.70;;;9.40;93.20;;;;;;5012597;28;20030;-78
2021/12/29 10:18:43;;;;;;;4.50;0.82;;;9.40;93.10;;;;;;5008630;28;20064;-78
2021/12/29 10:21:13;;;;;;;1.08;0.73;;;9.40;93.10;;;;;;5015667;28;20042;-78
2021/12/29 10:23:44;;;;;;;1.38;0.73;;;9.50;93.20;;;;;;5016714;28;20041;-78
2021/12/29 10:26:15;;;;;;;1.42;0.88;;;9.40;93.20;;;;;;5001682;28;20103;-78
2021/12/29 10:28:43;;;;;;;1.58;0.90;;;9.50;93.20;;;;;;5025319;28;20521;-78
2021/12/29 10:31:15;;;;;;;1.75;1.00;;;9.40;93.20;;;;;;4999397;28;20052;-78
2021/12/29 10:33:51;;;;;;;1.40;1.13;;;9.40;93.20;;;;;;5026552;28;20133;-78
2021/12/29 10:36:28;;;;;;;3.15;1.65;;;9.40;93.20;;;;;;4996567;28;20054;-78
2021/12/29 10:39:04;;;;;;;1.85;1.20;;;9.50;93.20;;;;;;5014542;28;20116;-78
2021/12/29 10:41:30;;;;;;;2.67;0.77;;;9.50;93.20;;;;;;5020515;28;20044;-79
2021/12/29 10:44:01;;;;;;;3.28;1.10;;;9.40;93.10;;;;;;5044695;28;20069;-78
2021/12/29 10:46:27;;;;;;;2.58;1.05;;;9.40;93.10;;;;;;5014893;28;20063;-78
2021/12/29 10:48:53;;;;;;;3.17;1.00;;;9.40;93.10;;;;;;4993998;28;20052;-78
2021/12/29 10:51:19;;;;;;;3.00;1.48;;;9.40;93.10;;;;;;5018637;28;20046;-80
2021/12/29 10:53:44;;;;;;;3.88;2.08;;;9.40;93.10;;;;;;5019220;28;20063;-78
2021/12/29 10:56:24;;;;;;;2.35;1.27;;;9.40;93.10;;;;;;5001885;28;20035;-79
2021/12/29 10:58:50;;;;;;;5.38;2.25;;;9.40;93.10;;;;;;5015711;28;20136;-79
2021/12/29 11:01:16;;;;;;;4.85;2.30;;;9.40;93.10;;;;;;5002152;28;20157;-79
2021/12/29 11:03:49;;;;;;;3.38;1.75;;;9.40;93.10;;;;;;5001259;28;20663;-79
2021/12/29 11:06:16;;;;;;;3.20;1.85;;;9.40;93.10;;;;;;5019061;28;20041;-78
2021/12/29 11:09:02;;;;;;;2.08;1.73;;;9.40;93.10;;;;;;5012308;28;20136;-78
2021/12/29 11:11:33;;;;;;;3.95;2.17;;;9.40;93.10;;;;;;5015852;28;20493;-79
2021/12/29 11:14:09;;;;;;;4.32;2.10;;;9.40;93.10;;;;;;5019698;28;20038;-79
2021/12/29 11:16:35;;;;;;;2.63;1.77;;;9.40;93.10;;;;;;5005819;28;20055;-79
2021/12/29 11:19:00;;;;;;;4.35;2.78;;;9.50;93.20;;;;;;5000060;28;20511;-80
2021/12/29 11:21:29;;;;;;;4.55;2.45;;;9.50;93.20;;;;;;5022145;28;20038;-79
2021/12/29 11:23:54;;;;;;;4.65;2.20;;;9.50;93.20;;;;;;5018414;28;20030;-78
2021/12/29 11:26:32;;;;;;;2.47;2.00;;;9.50;93.50;;;;;;5007011;28;20040;-78
2021/12/29 11:29:05;;;;;;;3.20;1.70;;;9.50;93.20;;;;;;5021637;28;20041;-78
2021/12/29 11:31:40;;;;;;;3.90;2.50;;;9.50;93.20;;;;;;5018760;28;20038;-79
2021/12/29 11:34:13;;;;;;;4.45;2.28;;;9.60;93.20;;;;;;5002865;28;20037;-80
2021/12/29 11:36:39;;;;;;;3.28;2.22;;;9.60;93.20;;;;;;5018700;28;20091;-79
2021/12/29 11:39:04;;;;;;;3.10;2.28;;;9.60;93.20;;;;;;5012267;28;20032;-79
2021/12/29 11:41:30;;;;;;;1.95;1.42;;;9.60;93.10;;;;;;5022287;28;20044;-79
2021/12/29 11:43:55;;;;;;;2.58;2.00;;;9.60;93.10;;;;;;5024684;28;20037;-78
2021/12/29 11:46:24;;;;;;;4.05;1.95;;;9.60;93.10;;;;;;5001251;28;20037;-79
2021/12/29 11:48:52;;;;;;;2.38;1.83;;;9.60;93.10;;;;;;5017520;28;20416;-78
2021/12/29 11:51:25;;;;;;;2.78;1.88;;;9.70;93.20;;;;;;5026091;28;20040;-79
2021/12/29 11:54:19;;;;;;;4.65;2.15;;;9.70;93.50;;;;;;5014295;28;20163;-78
2021/12/29 11:56:45;;;;;;;7.63;4.18;;;9.70;93.10;;;;;;5011369;28;20443;-78
2021/12/29 11:59:10;;;;;;;4.65;2.53;;;9.70;93.10;;;;;;5013480;28;20510;-78
2021/12/29 12:01:36;;;;;;;5.50;3.45;;;9.80;93.10;;;;;;5005235;28;20111;-78
2021/12/29 12:04:03;;;;;;;9.45;3.50;;;9.80;93.10;;;;;;5003005;28;20091;-78
2021/12/29 12:06:31;;;;;;;4.45;2.50;;;9.80;93.10;;;;;;4986522;28;20025;-78
2021/12/29 12:09:29;;;;;;;6.15;3.85;;;9.80;93.10;;;;;;5012563;28;20162;-79
2021/12/29 12:12:00;;;;;;;5.10;3.08;;;9.90;93.10;;;;;;4987255;28;20042;-78
2021/12/29 12:14:27;;;;;;;5.05;2.83;;;9.90;93.10;;;;;;4990686;28;20087;-73
2021/12/29 12:17:01;;;;;;;5.50;2.78;;;10.00;93.10;;;;;;5041089;28;20040;-79
2021/12/29 12:19:28;;;;;;;6.15;2.63;;;10.00;93.10;;;;;;4981767;28;20528;-78
2021/12/29 12:22:19;;;;;;;6.22;2.22;;;10.10;93.10;;;;;;5021268;28;20407;-78
2021/12/29 12:24:51;;;;;;;3.13;1.83;;;10.20;93.10;;;;;;5026599;28;20064;-79
2021/12/29 12:27:39;;;;;;;3.30;2.03;;;10.20;93.00;;;;;;5026049;28;20059;-79
2021/12/29 12:30:11;;;;;;;4.85;2.63;;;10.20;92.90;;;;;;5013311;28;20064;-78
2021/12/29 12:32:50;;;;;;;3.78;1.77;;;10.30;92.90;;;;;;5018883;28;20053;-79
2021/12/29 12:35:39;;;;;;;5.45;2.25;;;10.30;92.80;;;;;;5020773;28;20029;-79
2021/12/29 12:38:34;;;;;;;2.88;1.58;;;10.40;92.80;;;;;;4998354;28;20044;-79
2021/12/29 12:41:14;;;;;;;3.45;1.38;;;10.40;92.70;;;;;;5001005;28;20025;-78
2021/12/29 12:44:00;;;;;;;4.10;1.17;;;10.40;92.70;;;;;;5018038;28;20038;-79
2021/12/29 12:46:45;;;;;;;1.55;0.65;;;10.40;92.60;;;;;;4997762;28;20088;-80
2021/12/29 12:49:25;;;;;;;1.58;0.90;;;10.50;92.50;;;;;;5019313;28;20099;-79
2021/12/29 12:51:57;;;;;;;3.25;1.02;;;10.50;92.50;;;;;;5016229;28;20033;-78
2021/12/29 12:54:23;;;;;;;3.55;1.58;;;10.50;92.60;;;;;;5014094;28;20026;-79
2021/12/29 12:56:49;;;;;;;3.65;2.03;;;10.60;92.60;;;;;;5041677;28;20034;-79
2021/12/29 12:59:15;;;;;;;3.22;2.70;;;10.70;92.50;;;;;;5014735;28;20026;-78
2021/12/29 13:01:47;;;;;;;4.32;1.83;;;10.70;92.50;;;;;;4995759;28;20045;-78
2021/12/29 13:04:15;;;;;;;2.10;1.30;;;10.80;92.50;;;;;;5030613;28;20404;-79